Terminal Aerodrome Forecast
Issued by NWS

Home | Current Version | Previous Version | Text Only | Print | Product List | Glossary Off
Versions: 1 2 3 4 5 6 7 8 9 10 11 12 13 14 15 16 17 18 19 20 21 22 23

000
FTUS43 KGRB 281306 AAA
TAFATW
TAF AMD
KATW 281306Z 2813/2912 26004KT P6SM SCT030
      TEMPO 2813/2814 5SM BR BKN030
     FM281400 29004KT 3SM BR BKN009 OVC018
     FM281500 29004KT 6SM BR BKN014
     FM281600 26004KT P6SM SCT023
     FM281900 17003KT P6SM FEW140
     FM290800 16003KT 3SM BR SCT250=

USA.gov is the U.S. government's official web portal to all federal, state and local government web resources and services.